sensor_id;sensor_type;location;lat;lon;timestamp;temperature;humidity
35299;DHT22;21415;48.054;16.646;2022-12-18T00:00:45;5.90;47.50
35299;DHT22;21415;48.054;16.646;2022-12-18T00:03:14;5.80;47.50
35299;DHT22;21415;48.054;16.646;2022-12-18T00:05:48;5.70;47.50
35299;DHT22;21415;48.054;16.646;2022-12-18T00:08:14;5.80;48.20
35299;DHT22;21415;48.054;16.646;2022-12-18T00:10:40;5.80;47.80
35299;DHT22;21415;48.054;16.646;2022-12-18T00:13:05;5.70;47.80
35299;DHT22;21415;48.054;16.646;2022-12-18T00:15:37;5.60;47.80
35299;DHT22;21415;48.054;16.646;2022-12-18T00:18:03;5.50;47.90
35299;DHT22;21415;48.054;16.646;2022-12-18T00:20:29;5.40;47.90
35299;DHT22;21415;48.054;16.646;2022-12-18T00:22:56;5.40;48.00
35299;DHT22;21415;48.054;16.646;2022-12-18T00:25:22;5.50;48.10
35299;DHT22;21415;48.054;16.646;2022-12-18T00:27:48;5.30;48.10
35299;DHT22;21415;48.054;16.646;2022-12-18T00:30:14;5.40;48.10
35299;DHT22;21415;48.054;16.646;2022-12-18T00:32:40;5.20;48.00
35299;DHT22;21415;48.054;16.646;2022-12-18T00:35:06;5.30;48.20
35299;DHT22;21415;48.054;16.646;2022-12-18T00:37:33;5.10;48.10
35299;DHT22;21415;48.054;16.646;2022-12-18T00:39:59;5.10;48.10
35299;DHT22;21415;48.054;16.646;2022-12-18T00:42:25;5.30;48.20
35299;DHT22;21415;48.054;16.646;2022-12-18T00:45:09;5.10;48.20
35299;DHT22;21415;48.054;16.646;2022-12-18T00:47:35;5.20;48.30
35299;DHT22;21415;48.054;16.646;2022-12-18T00:50:01;5.10;48.30
35299;DHT22;21415;48.054;16.646;2022-12-18T00:52:27;5.10;48.30
35299;DHT22;21415;48.054;16.646;2022-12-18T00:54:53;5.10;48.30
35299;DHT22;21415;48.054;16.646;2022-12-18T00:57:18;5.10;48.30
35299;DHT22;21415;48.054;16.646;2022-12-18T00:59:44;5.00;48.30
35299;DHT22;21415;48.054;16.646;2022-12-18T01:02:13;5.00;48.30
35299;DHT22;21415;48.054;16.646;2022-12-18T01:04:39;4.80;48.20
35299;DHT22;21415;48.054;16.646;2022-12-18T01:07:04;4.80;48.20
35299;DHT22;21415;48.054;16.646;2022-12-18T01:09:30;4.80;48.30
35299;DHT22;21415;48.054;16.646;2022-12-18T01:11:56;4.70;48.30
35299;DHT22;21415;48.054;16.646;2022-12-18T01:14:22;4.80;48.30
35299;DHT22;21415;48.054;16.646;2022-12-18T01:16:47;4.80;48.40
35299;DHT22;21415;48.054;16.646;2022-12-18T01:19:13;4.70;48.40
35299;DHT22;21415;48.054;16.646;2022-12-18T01:21:39;4.80;48.40
35299;DHT22;21415;48.054;16.646;2022-12-18T01:24:05;4.80;48.50
35299;DHT22;21415;48.054;16.646;2022-12-18T01:26:31;4.60;48.40
35299;DHT22;21415;48.054;16.646;2022-12-18T01:28:57;4.60;48.50
35299;DHT22;21415;48.054;16.646;2022-12-18T01:31:27;4.70;48.60
35299;DHT22;21415;48.054;16.646;2022-12-18T01:33:54;4.70;48.70
35299;DHT22;21415;48.054;16.646;2022-12-18T01:36:32;4.70;48.60
35299;DHT22;21415;48.054;16.646;2022-12-18T01:39:05;4.70;48.70
35299;DHT22;21415;48.054;16.646;2022-12-18T01:41:32;4.60;48.70
35299;DHT22;21415;48.054;16.646;2022-12-18T01:47:21;4.40;48.70
35299;DHT22;21415;48.054;16.646;2022-12-18T01:49:48;4.40;48.60
35299;DHT22;21415;48.054;16.646;2022-12-18T01:52:14;4.40;48.60
35299;DHT22;21415;48.054;16.646;2022-12-18T01:54:41;4.40;48.70
35299;DHT22;21415;48.054;16.646;2022-12-18T01:57:07;4.50;48.70
35299;DHT22;21415;48.054;16.646;2022-12-18T01:59:33;4.50;48.70
35299;DHT22;21415;48.054;16.646;2022-12-18T02:02:01;4.40;48.60
35299;DHT22;21415;48.054;16.646;2022-12-18T02:04:28;4.30;48.50
35299;DHT22;21415;48.054;16.646;2022-12-18T02:07:19;4.50;48.60
35299;DHT22;21415;48.054;16.646;2022-12-18T02:09:59;4.30;48.60
35299;DHT22;21415;48.054;16.646;2022-12-18T02:12:34;4.40;48.60
35299;DHT22;21415;48.054;16.646;2022-12-18T02:15:13;4.40;48.70
35299;DHT22;21415;48.054;16.646;2022-12-18T02:18:00;4.40;48.70
35299;DHT22;21415;48.054;16.646;2022-12-18T02:20:41;4.30;48.60
35299;DHT22;21415;48.054;16.646;2022-12-18T02:26:20;4.30;48.50
35299;DHT22;21415;48.054;16.646;2022-12-18T02:29:03;4.20;48.50
35299;DHT22;21415;48.054;16.646;2022-12-18T02:31:36;4.20;48.50
35299;DHT22;21415;48.054;16.646;2022-12-18T02:34:07;4.20;48.50
35299;DHT22;21415;48.054;16.646;2022-12-18T02:36:39;4.30;48.60
35299;DHT22;21415;48.054;16.646;2022-12-18T02:39:07;4.20;48.50
35299;DHT22;21415;48.054;16.646;2022-12-18T02:41:37;4.30;48.60
35299;DHT22;21415;48.054;16.646;2022-12-18T02:44:08;4.10;48.50
35299;DHT22;21415;48.054;16.646;2022-12-18T02:46:40;4.20;48.60
35299;DHT22;21415;48.054;16.646;2022-12-18T02:52:21;4.00;48.50
35299;DHT22;21415;48.054;16.646;2022-12-18T03:00:03;4.10;48.70
35299;DHT22;21415;48.054;16.646;2022-12-18T03:02:49;4.00;48.70
35299;DHT22;21415;48.054;16.646;2022-12-18T03:08:06;3.90;48.60
35299;DHT22;21415;48.054;16.646;2022-12-18T03:10:39;3.90;48.70
35299;DHT22;21415;48.054;16.646;2022-12-18T03:13:13;4.00;48.60
35299;DHT22;21415;48.054;16.646;2022-12-18T03:15:47;4.10;48.70
35299;DHT22;21415;48.054;16.646;2022-12-18T03:18:42;4.00;48.70
35299;DHT22;21415;48.054;16.646;2022-12-18T03:21:06;3.90;48.70
35299;DHT22;21415;48.054;16.646;2022-12-18T03:23:42;3.90;49.20
35299;DHT22;21415;48.054;16.646;2022-12-18T03:26:12;3.80;48.70
35299;DHT22;21415;48.054;16.646;2022-12-18T03:28:49;3.90;48.70
35299;DHT22;21415;48.054;16.646;2022-12-18T03:31:19;3.70;48.60
35299;DHT22;21415;48.054;16.646;2022-12-18T03:33:54;3.90;48.70
35299;DHT22;21415;48.054;16.646;2022-12-18T03:36:24;3.80;48.70
35299;DHT22;21415;48.054;16.646;2022-12-18T03:38:51;3.80;48.70
35299;DHT22;21415;48.054;16.646;2022-12-18T03:46:41;3.70;48.90
35299;DHT22;21415;48.054;16.646;2022-12-18T03:49:12;3.60;48.60
35299;DHT22;21415;48.054;16.646;2022-12-18T03:54:12;3.70;48.80
35299;DHT22;21415;48.054;16.646;2022-12-18T03:56:48;3.70;48.80
35299;DHT22;21415;48.054;16.646;2022-12-18T03:59:17;3.70;48.80
35299;DHT22;21415;48.054;16.646;2022-12-18T04:01:48;3.70;48.80
35299;DHT22;21415;48.054;16.646;2022-12-18T04:04:16;3.60;48.80
35299;DHT22;21415;48.054;16.646;2022-12-18T04:06:45;3.70;48.90
35299;DHT22;21415;48.054;16.646;2022-12-18T04:09:13;3.70;48.90
35299;DHT22;21415;48.054;16.646;2022-12-18T04:11:43;3.60;48.90
35299;DHT22;21415;48.054;16.646;2022-12-18T04:14:14;3.60;48.90
35299;DHT22;21415;48.054;16.646;2022-12-18T04:16:39;3.70;49.00
35299;DHT22;21415;48.054;16.646;2022-12-18T04:19:08;3.70;49.10
35299;DHT22;21415;48.054;16.646;2022-12-18T04:21:38;3.60;49.10
35299;DHT22;21415;48.054;16.646;2022-12-18T04:24:05;3.80;49.20
35299;DHT22;21415;48.054;16.646;2022-12-18T04:26:32;3.70;49.20
35299;DHT22;21415;48.054;16.646;2022-12-18T04:29:12;3.80;49.00
35299;DHT22;21415;48.054;16.646;2022-12-18T04:31:38;3.70;48.90
35299;DHT22;21415;48.054;16.646;2022-12-18T04:34:04;3.90;48.90
35299;DHT22;21415;48.054;16.646;2022-12-18T04:36:36;3.90;48.70
35299;DHT22;21415;48.054;16.646;2022-12-18T04:39:02;3.90;48.70
35299;DHT22;21415;48.054;16.646;2022-12-18T04:41:29;3.80;48.60
35299;DHT22;21415;48.054;16.646;2022-12-18T04:43:55;3.80;48.50
35299;DHT22;21415;48.054;16.646;2022-12-18T04:46:21;3.90;48.60
35299;DHT22;21415;48.054;16.646;2022-12-18T04:48:47;3.80;48.40
35299;DHT22;21415;48.054;16.646;2022-12-18T04:51:13;3.90;48.40
35299;DHT22;21415;48.054;16.646;2022-12-18T04:53:38;3.70;48.30
35299;DHT22;21415;48.054;16.646;2022-12-18T04:56:06;3.90;48.30
35299;DHT22;21415;48.054;16.646;2022-12-18T04:58:33;3.70;48.20
35299;DHT22;21415;48.054;16.646;2022-12-18T05:00:59;3.90;48.30
35299;DHT22;21415;48.054;16.646;2022-12-18T05:03:25;3.80;48.20
35299;DHT22;21415;48.054;16.646;2022-12-18T05:05:51;3.80;48.20
35299;DHT22;21415;48.054;16.646;2022-12-18T05:08:17;3.80;48.20
35299;DHT22;21415;48.054;16.646;2022-12-18T05:10:43;3.80;48.10
35299;DHT22;21415;48.054;16.646;2022-12-18T05:13:09;3.80;48.10
35299;DHT22;21415;48.054;16.646;2022-12-18T05:15:35;3.70;48.10
35299;DHT22;21415;48.054;16.646;2022-12-18T05:18:03;3.70;48.10
35299;DHT22;21415;48.054;16.646;2022-12-18T05:20:29;3.80;48.20
35299;DHT22;21415;48.054;16.646;2022-12-18T05:22:55;3.60;48.10
35299;DHT22;21415;48.054;16.646;2022-12-18T05:25:22;3.60;48.10
35299;DHT22;21415;48.054;16.646;2022-12-18T05:27:47;3.60;48.10
35299;DHT22;21415;48.054;16.646;2022-12-18T05:30:14;3.50;48.20
35299;DHT22;21415;48.054;16.646;2022-12-18T05:32:41;3.40;48.00
35299;DHT22;21415;48.054;16.646;2022-12-18T05:35:08;3.60;48.00
35299;DHT22;21415;48.054;16.646;2022-12-18T05:37:34;3.40;48.00
35299;DHT22;21415;48.054;16.646;2022-12-18T05:40:01;3.40;47.90
35299;DHT22;21415;48.054;16.646;2022-12-18T05:42:26;3.50;48.00
35299;DHT22;21415;48.054;16.646;2022-12-18T05:44:52;3.50;48.10
35299;DHT22;21415;48.054;16.646;2022-12-18T05:47:18;3.50;48.20
35299;DHT22;21415;48.054;16.646;2022-12-18T05:49:43;3.50;48.00
35299;DHT22;21415;48.054;16.646;2022-12-18T05:52:09;3.50;48.00
35299;DHT22;21415;48.054;16.646;2022-12-18T05:54:35;3.50;47.90
35299;DHT22;21415;48.054;16.646;2022-12-18T05:57:01;3.40;47.90
35299;DHT22;21415;48.054;16.646;2022-12-18T05:59:26;3.40;47.90
35299;DHT22;21415;48.054;16.646;2022-12-18T06:01:52;3.40;47.90
35299;DHT22;21415;48.054;16.646;2022-12-18T06:04:18;3.30;47.90
35299;DHT22;21415;48.054;16.646;2022-12-18T06:06:44;3.20;47.90
35299;DHT22;21415;48.054;16.646;2022-12-18T06:09:09;3.30;48.00
35299;DHT22;21415;48.054;16.646;2022-12-18T06:11:36;3.30;48.00
35299;DHT22;21415;48.054;16.646;2022-12-18T06:14:04;3.30;48.00
35299;DHT22;21415;48.054;16.646;2022-12-18T06:16:30;3.20;47.90
35299;DHT22;21415;48.054;16.646;2022-12-18T06:18:57;3.20;47.90
35299;DHT22;21415;48.054;16.646;2022-12-18T06:21:23;3.20;47.90
35299;DHT22;21415;48.054;16.646;2022-12-18T06:23:49;3.20;48.00
35299;DHT22;21415;48.054;16.646;2022-12-18T06:26:14;3.20;48.00
35299;DHT22;21415;48.054;16.646;2022-12-18T06:28:40;3.00;47.80
35299;DHT22;21415;48.054;16.646;2022-12-18T06:31:07;3.20;48.00
35299;DHT22;21415;48.054;16.646;2022-12-18T06:33:33;3.20;48.00
35299;DHT22;21415;48.054;16.646;2022-12-18T06:35:59;3.20;48.10
35299;DHT22;21415;48.054;16.646;2022-12-18T06:38:26;3.10;48.10
35299;DHT22;21415;48.054;16.646;2022-12-18T06:40:52;3.10;48.00
35299;DHT22;21415;48.054;16.646;2022-12-18T06:43:17;3.10;48.00
35299;DHT22;21415;48.054;16.646;2022-12-18T06:45:43;2.90;47.90
35299;DHT22;21415;48.054;16.646;2022-12-18T06:48:09;2.90;48.00
35299;DHT22;21415;48.054;16.646;2022-12-18T06:50:34;3.10;48.20
35299;DHT22;21415;48.054;16.646;2022-12-18T06:53:00;3.00;48.20
35299;DHT22;21415;48.054;16.646;2022-12-18T06:55:26;3.00;48.20
35299;DHT22;21415;48.054;16.646;2022-12-18T06:57:52;3.00;48.30
35299;DHT22;21415;48.054;16.646;2022-12-18T07:00:18;3.00;48.40
35299;DHT22;21415;48.054;16.646;2022-12-18T07:02:43;2.80;48.30
35299;DHT22;21415;48.054;16.646;2022-12-18T07:05:09;2.90;48.40
35299;DHT22;21415;48.054;16.646;2022-12-18T07:07:35;3.00;48.50
35299;DHT22;21415;48.054;16.646;2022-12-18T07:10:01;2.90;48.50
35299;DHT22;21415;48.054;16.646;2022-12-18T07:12:27;3.00;48.50
35299;DHT22;21415;48.054;16.646;2022-12-18T07:14:53;3.10;48.60
35299;DHT22;21415;48.054;16.646;2022-12-18T07:17:18;3.00;48.50
35299;DHT22;21415;48.054;16.646;2022-12-18T07:19:44;3.10;48.60
35299;DHT22;21415;48.054;16.646;2022-12-18T07:22:10;3.10;48.70
35299;DHT22;21415;48.054;16.646;2022-12-18T07:24:36;3.10;48.70
35299;DHT22;21415;48.054;16.646;2022-12-18T07:27:02;3.10;48.80
35299;DHT22;21415;48.054;16.646;2022-12-18T07:29:27;3.00;48.80
35299;DHT22;21415;48.054;16.646;2022-12-18T07:31:53;3.20;48.90
35299;DHT22;21415;48.054;16.646;2022-12-18T07:34:19;3.20;48.90
35299;DHT22;21415;48.054;16.646;2022-12-18T07:36:45;3.30;49.00
35299;DHT22;21415;48.054;16.646;2022-12-18T07:39:11;3.20;48.90
35299;DHT22;21415;48.054;16.646;2022-12-18T07:41:37;3.20;48.90
35299;DHT22;21415;48.054;16.646;2022-12-18T07:44:12;3.20;48.90
35299;DHT22;21415;48.054;16.646;2022-12-18T07:46:38;3.20;48.90
35299;DHT22;21415;48.054;16.646;2022-12-18T07:49:04;3.40;48.90
35299;DHT22;21415;48.054;16.646;2022-12-18T07:51:29;3.40;48.90
35299;DHT22;21415;48.054;16.646;2022-12-18T07:53:56;3.40;48.90
35299;DHT22;21415;48.054;16.646;2022-12-18T07:56:22;3.40;48.90
35299;DHT22;21415;48.054;16.646;2022-12-18T07:58:48;3.50;49.00
35299;DHT22;21415;48.054;16.646;2022-12-18T08:01:14;3.50;49.00
35299;DHT22;21415;48.054;16.646;2022-12-18T08:03:40;3.60;49.00
35299;DHT22;21415;48.054;16.646;2022-12-18T08:06:08;3.60;49.10
35299;DHT22;21415;48.054;16.646;2022-12-18T08:08:35;3.60;49.00
35299;DHT22;21415;48.054;16.646;2022-12-18T08:11:01;3.70;49.10
35299;DHT22;21415;48.054;16.646;2022-12-18T08:13:28;3.70;49.10
35299;DHT22;21415;48.054;16.646;2022-12-18T08:16:01;3.70;49.10
35299;DHT22;21415;48.054;16.646;2022-12-18T08:18:27;3.60;49.20
35299;DHT22;21415;48.054;16.646;2022-12-18T08:20:53;3.80;49.10
35299;DHT22;21415;48.054;16.646;2022-12-18T08:23:19;3.80;49.10
35299;DHT22;21415;48.054;16.646;2022-12-18T08:25:45;3.90;49.20
35299;DHT22;21415;48.054;16.646;2022-12-18T08:28:11;3.90;49.20
35299;DHT22;21415;48.054;16.646;2022-12-18T08:30:36;3.90;49.20
35299;DHT22;21415;48.054;16.646;2022-12-18T08:33:02;3.80;49.10
35299;DHT22;21415;48.054;16.646;2022-12-18T08:35:28;4.00;49.10
35299;DHT22;21415;48.054;16.646;2022-12-18T08:37:54;4.00;49.20
35299;DHT22;21415;48.054;16.646;2022-12-18T08:40:20;4.10;49.30
35299;DHT22;21415;48.054;16.646;2022-12-18T08:42:45;4.10;49.30
35299;DHT22;21415;48.054;16.646;2022-12-18T08:45:30;4.10;49.30
35299;DHT22;21415;48.054;16.646;2022-12-18T08:47:55;4.10;49.30
35299;DHT22;21415;48.054;16.646;2022-12-18T08:50:21;4.10;49.30
35299;DHT22;21415;48.054;16.646;2022-12-18T08:52:47;4.10;49.30
35299;DHT22;21415;48.054;16.646;2022-12-18T08:55:12;4.30;49.40
35299;DHT22;21415;48.054;16.646;2022-12-18T08:57:38;4.30;49.40
35299;DHT22;21415;48.054;16.646;2022-12-18T09:00:04;4.20;49.40
35299;DHT22;21415;48.054;16.646;2022-12-18T09:02:30;4.20;49.30
35299;DHT22;21415;48.054;16.646;2022-12-18T09:04:56;4.20;49.50
35299;DHT22;21415;48.054;16.646;2022-12-18T09:07:22;4.30;49.60
35299;DHT22;21415;48.054;16.646;2022-12-18T09:09:47;4.50;49.40
35299;DHT22;21415;48.054;16.646;2022-12-18T09:12:13;4.50;49.40
35299;DHT22;21415;48.054;16.646;2022-12-18T09:14:39;4.50;49.40
35299;DHT22;21415;48.054;16.646;2022-12-18T09:17:04;4.60;49.50
35299;DHT22;21415;48.054;16.646;2022-12-18T09:19:30;4.60;49.50
35299;DHT22;21415;48.054;16.646;2022-12-18T09:21:56;4.50;49.40
35299;DHT22;21415;48.054;16.646;2022-12-18T09:24:22;4.70;49.50
35299;DHT22;21415;48.054;16.646;2022-12-18T09:26:48;4.70;49.40
35299;DHT22;21415;48.054;16.646;2022-12-18T09:29:15;4.70;49.40
35299;DHT22;21415;48.054;16.646;2022-12-18T09:31:40;4.70;49.40
35299;DHT22;21415;48.054;16.646;2022-12-18T09:34:07;4.80;49.50
35299;DHT22;21415;48.054;16.646;2022-12-18T09:36:32;4.80;49.40
35299;DHT22;21415;48.054;16.646;2022-12-18T09:38:58;4.70;49.30
35299;DHT22;21415;48.054;16.646;2022-12-18T09:44:51;4.70;49.20
35299;DHT22;21415;48.054;16.646;2022-12-18T09:49:44;4.90;49.30
35299;DHT22;21415;48.054;16.646;2022-12-18T09:52:34;4.90;49.40
35299;DHT22;21415;48.054;16.646;2022-12-18T09:55:09;4.90;49.40
35299;DHT22;21415;48.054;16.646;2022-12-18T09:57:40;4.80;49.50
35299;DHT22;21415;48.054;16.646;2022-12-18T10:00:23;5.00;49.50
35299;DHT22;21415;48.054;16.646;2022-12-18T10:02:51;4.90;49.30
35299;DHT22;21415;48.054;16.646;2022-12-18T10:05:27;5.10;49.40
35299;DHT22;21415;48.054;16.646;2022-12-18T10:13:20;5.20;49.30
35299;DHT22;21415;48.054;16.646;2022-12-18T10:21:18;5.20;49.30
35299;DHT22;21415;48.054;16.646;2022-12-18T10:24:12;5.50;49.50
35299;DHT22;21415;48.054;16.646;2022-12-18T10:26:41;5.40;49.50
35299;DHT22;21415;48.054;16.646;2022-12-18T10:29:17;5.40;49.40
35299;DHT22;21415;48.054;16.646;2022-12-18T10:31:42;5.70;49.20
35299;DHT22;21415;48.054;16.646;2022-12-18T10:34:12;5.80;49.50
35299;DHT22;21415;48.054;16.646;2022-12-18T10:36:38;5.70;49.30
35299;DHT22;21415;48.054;16.646;2022-12-18T10:39:21;5.90;49.40
35299;DHT22;21415;48.054;16.646;2022-12-18T10:41:51;5.90;49.00
35299;DHT22;21415;48.054;16.646;2022-12-18T10:44:30;6.10;49.40
35299;DHT22;21415;48.054;16.646;2022-12-18T10:47:04;6.20;49.30
35299;DHT22;21415;48.054;16.646;2022-12-18T10:49:33;6.30;49.00
35299;DHT22;21415;48.054;16.646;2022-12-18T10:52:21;6.40;49.20
35299;DHT22;21415;48.054;16.646;2022-12-18T10:54:57;6.30;48.60
35299;DHT22;21415;48.054;16.646;2022-12-18T11:00:03;6.50;48.70
35299;DHT22;21415;48.054;16.646;2022-12-18T11:02:44;6.50;48.80
35299;DHT22;21415;48.054;16.646;2022-12-18T11:05:30;6.70;48.90
35299;DHT22;21415;48.054;16.646;2022-12-18T11:07:57;6.70;48.30
35299;DHT22;21415;48.054;16.646;2022-12-18T11:10:35;6.90;48.70
35299;DHT22;21415;48.054;16.646;2022-12-18T11:13:19;6.90;48.30
35299;DHT22;21415;48.054;16.646;2022-12-18T11:15:46;7.10;48.20
35299;DHT22;21415;48.054;16.646;2022-12-18T11:18:28;7.20;48.70
35299;DHT22;21415;48.054;16.646;2022-12-18T11:21:08;7.20;48.10
35299;DHT22;21415;48.054;16.646;2022-12-18T11:23:35;7.20;47.80
35299;DHT22;21415;48.054;16.646;2022-12-18T11:26:03;7.30;48.10
35299;DHT22;21415;48.054;16.646;2022-12-18T11:28:53;7.30;47.70
35299;DHT22;21415;48.054;16.646;2022-12-18T11:31:32;7.30;47.10
35299;DHT22;21415;48.054;16.646;2022-12-18T11:36:46;7.40;46.80
35299;DHT22;21415;48.054;16.646;2022-12-18T11:42:12;7.20;46.10
35299;DHT22;21415;48.054;16.646;2022-12-18T11:47:24;7.10;46.20
35299;DHT22;21415;48.054;16.646;2022-12-18T11:49:52;7.10;46.50
35299;DHT22;21415;48.054;16.646;2022-12-18T11:52:22;7.00;46.40
35299;DHT22;21415;48.054;16.646;2022-12-18T11:54:53;7.00;46.40
35299;DHT22;21415;48.054;16.646;2022-12-18T12:14:00;6.50;47.30
35299;DHT22;21415;48.054;16.646;2022-12-18T12:19:52;6.50;47.50
35299;DHT22;21415;48.054;16.646;2022-12-18T12:26:04;6.50;47.80
35299;DHT22;21415;48.054;16.646;2022-12-18T12:36:57;6.60;47.20
35299;DHT22;21415;48.054;16.646;2022-12-18T12:39:37;6.60;47.20
35299;DHT22;21415;48.054;16.646;2022-12-18T12:42:06;6.60;47.30
35299;DHT22;21415;48.054;16.646;2022-12-18T12:44:55;6.70;47.50
35299;DHT22;21415;48.054;16.646;2022-12-18T12:47:32;6.70;47.50
35299;DHT22;21415;48.054;16.646;2022-12-18T12:50:01;6.70;47.50
35299;DHT22;21415;48.054;16.646;2022-12-18T12:52:35;6.80;47.60
35299;DHT22;21415;48.054;16.646;2022-12-18T12:55:05;6.70;47.40
35299;DHT22;21415;48.054;16.646;2022-12-18T12:57:38;6.60;47.40
35299;DHT22;21415;48.054;16.646;2022-12-18T13:00:10;6.70;47.40
35299;DHT22;21415;48.054;16.646;2022-12-18T13:05:51;6.60;47.40
35299;DHT22;21415;48.054;16.646;2022-12-18T13:10:49;6.60;47.50
35299;DHT22;21415;48.054;16.646;2022-12-18T13:13:47;6.70;47.70
35299;DHT22;21415;48.054;16.646;2022-12-18T13:16:19;6.70;47.40
35299;DHT22;21415;48.054;16.646;2022-12-18T13:18:58;6.70;47.50
35299;DHT22;21415;48.054;16.646;2022-12-18T13:21:29;6.80;47.50
35299;DHT22;21415;48.054;16.646;2022-12-18T13:23:56;6.80;47.50
35299;DHT22;21415;48.054;16.646;2022-12-18T13:26:34;6.80;47.50
35299;DHT22;21415;48.054;16.646;2022-12-18T13:29:00;6.80;47.50
35299;DHT22;21415;48.054;16.646;2022-12-18T13:34:27;6.70;47.40
35299;DHT22;21415;48.054;16.646;2022-12-18T13:39:40;6.70;47.50
35299;DHT22;21415;48.054;16.646;2022-12-18T13:44:36;6.80;47.50
35299;DHT22;21415;48.054;16.646;2022-12-18T13:49:50;6.80;47.20
35299;DHT22;21415;48.054;16.646;2022-12-18T13:52:22;6.80;47.50
35299;DHT22;21415;48.054;16.646;2022-12-18T13:55:02;6.80;47.30
35299;DHT22;21415;48.054;16.646;2022-12-18T13:57:33;6.90;47.40
35299;DHT22;21415;48.054;16.646;2022-12-18T14:02:45;6.70;47.20
35299;DHT22;21415;48.054;16.646;2022-12-18T14:05:35;6.90;47.50
35299;DHT22;21415;48.054;16.646;2022-12-18T14:08:04;6.90;47.30
35299;DHT22;21415;48.054;16.646;2022-12-18T14:10:31;6.70;47.40
35299;DHT22;21415;48.054;16.646;2022-12-18T14:12:57;6.70;47.40
35299;DHT22;21415;48.054;16.646;2022-12-18T14:15:55;6.70;47.40
35299;DHT22;21415;48.054;16.646;2022-12-18T14:20:57;6.70;47.40
35299;DHT22;21415;48.054;16.646;2022-12-18T14:23:33;6.80;47.50
35299;DHT22;21415;48.054;16.646;2022-12-18T14:28:46;6.60;47.40
35299;DHT22;21415;48.054;16.646;2022-12-18T14:31:26;6.80;47.40
35299;DHT22;21415;48.054;16.646;2022-12-18T14:33:53;6.60;47.30
35299;DHT22;21415;48.054;16.646;2022-12-18T14:36:24;6.70;47.60
35299;DHT22;21415;48.054;16.646;2022-12-18T14:38:54;6.70;47.50
35299;DHT22;21415;48.054;16.646;2022-12-18T14:41:21;6.60;47.60
35299;DHT22;21415;48.054;16.646;2022-12-18T14:43:52;6.70;47.60
35299;DHT22;21415;48.054;16.646;2022-12-18T14:46:36;6.50;47.60
35299;DHT22;21415;48.054;16.646;2022-12-18T14:49:19;6.60;47.60
35299;DHT22;21415;48.054;16.646;2022-12-18T14:51:54;6.70;47.60
35299;DHT22;21415;48.054;16.646;2022-12-18T14:54:21;6.60;47.60
35299;DHT22;21415;48.054;16.646;2022-12-18T14:56:49;6.60;47.70
35299;DHT22;21415;48.054;16.646;2022-12-18T14:59:22;6.50;47.70
35299;DHT22;21415;48.054;16.646;2022-12-18T15:04:35;6.50;47.70
35299;DHT22;21415;48.054;16.646;2022-12-18T15:07:07;6.50;47.70
35299;DHT22;21415;48.054;16.646;2022-12-18T15:09:34;6.60;47.80
35299;DHT22;21415;48.054;16.646;2022-12-18T15:12:01;6.50;47.80
35299;DHT22;21415;48.054;16.646;2022-12-18T15:16:56;6.50;47.80
35299;DHT22;21415;48.054;16.646;2022-12-18T15:19:34;6.40;47.90
35299;DHT22;21415;48.054;16.646;2022-12-18T15:22:02;6.30;47.90
35299;DHT22;21415;48.054;16.646;2022-12-18T15:24:31;6.40;48.00
35299;DHT22;21415;48.054;16.646;2022-12-18T15:26:58;6.30;48.00
35299;DHT22;21415;48.054;16.646;2022-12-18T15:29:24;6.30;48.00
35299;DHT22;21415;48.054;16.646;2022-12-18T15:32:19;6.30;48.10
35299;DHT22;21415;48.054;16.646;2022-12-18T15:34:45;6.40;48.20
35299;DHT22;21415;48.054;16.646;2022-12-18T15:37:10;6.30;48.20
35299;DHT22;21415;48.054;16.646;2022-12-18T15:39:36;6.30;48.20
35299;DHT22;21415;48.054;16.646;2022-12-18T15:42:02;6.40;48.30
35299;DHT22;21415;48.054;16.646;2022-12-18T15:44:46;6.30;48.30
35299;DHT22;21415;48.054;16.646;2022-12-18T15:47:13;6.30;48.30
35299;DHT22;21415;48.054;16.646;2022-12-18T15:49:39;6.30;48.40
35299;DHT22;21415;48.054;16.646;2022-12-18T15:52:05;6.30;48.40
35299;DHT22;21415;48.054;16.646;2022-12-18T15:54:31;6.20;48.40
35299;DHT22;21415;48.054;16.646;2022-12-18T15:57:16;6.40;48.60
35299;DHT22;21415;48.054;16.646;2022-12-18T15:59:52;6.30;48.70
35299;DHT22;21415;48.054;16.646;2022-12-18T16:02:22;6.30;48.70
35299;DHT22;21415;48.054;16.646;2022-12-18T16:04:49;6.30;48.80
35299;DHT22;21415;48.054;16.646;2022-12-18T16:07:15;6.30;48.90
35299;DHT22;21415;48.054;16.646;2022-12-18T16:09:41;6.20;48.90
35299;DHT22;21415;48.054;16.646;2022-12-18T16:12:18;6.30;49.00
35299;DHT22;21415;48.054;16.646;2022-12-18T16:14:44;6.30;49.10
35299;DHT22;21415;48.054;16.646;2022-12-18T16:17:11;6.30;49.00
35299;DHT22;21415;48.054;16.646;2022-12-18T16:19:38;6.30;49.10
35299;DHT22;21415;48.054;16.646;2022-12-18T16:22:04;6.40;49.10
35299;DHT22;21415;48.054;16.646;2022-12-18T16:24:32;6.40;49.20
35299;DHT22;21415;48.054;16.646;2022-12-18T16:27:00;6.40;49.20
35299;DHT22;21415;48.054;16.646;2022-12-18T16:29:27;6.40;49.10
35299;DHT22;21415;48.054;16.646;2022-12-18T16:31:58;6.50;49.10
35299;DHT22;21415;48.054;16.646;2022-12-18T16:34:30;6.50;48.90
35299;DHT22;21415;48.054;16.646;2022-12-18T16:36:58;6.50;48.90
35299;DHT22;21415;48.054;16.646;2022-12-18T16:39:25;6.50;48.90
35299;DHT22;21415;48.054;16.646;2022-12-18T16:41:51;6.50;48.90
35299;DHT22;21415;48.054;16.646;2022-12-18T16:44:17;6.60;49.00
35299;DHT22;21415;48.054;16.646;2022-12-18T16:46:47;6.60;49.00
35299;DHT22;21415;48.054;16.646;2022-12-18T16:49:14;6.60;49.00
35299;DHT22;21415;48.054;16.646;2022-12-18T16:51:40;6.60;49.00
35299;DHT22;21415;48.054;16.646;2022-12-18T16:54:06;6.60;49.00
35299;DHT22;21415;48.054;16.646;2022-12-18T16:56:33;6.60;49.00
35299;DHT22;21415;48.054;16.646;2022-12-18T16:59:00;6.60;49.00
35299;DHT22;21415;48.054;16.646;2022-12-18T17:01:29;6.60;49.00
35299;DHT22;21415;48.054;16.646;2022-12-18T17:04:00;6.70;49.00
35299;DHT22;21415;48.054;16.646;2022-12-18T17:06:28;6.70;49.00
35299;DHT22;21415;48.054;16.646;2022-12-18T17:08:59;6.70;49.00
35299;DHT22;21415;48.054;16.646;2022-12-18T17:11:26;6.70;49.00
35299;DHT22;21415;48.054;16.646;2022-12-18T17:13:52;6.70;49.00
35299;DHT22;21415;48.054;16.646;2022-12-18T17:16:19;6.70;49.00
35299;DHT22;21415;48.054;16.646;2022-12-18T17:18:46;6.70;48.90
35299;DHT22;21415;48.054;16.646;2022-12-18T17:21:13;6.70;49.00
35299;DHT22;21415;48.054;16.646;2022-12-18T17:23:42;6.70;49.00
35299;DHT22;21415;48.054;16.646;2022-12-18T17:26:12;6.70;49.00
35299;DHT22;21415;48.054;16.646;2022-12-18T17:28:40;6.70;49.00
35299;DHT22;21415;48.054;16.646;2022-12-18T17:31:16;6.70;49.00
35299;DHT22;21415;48.054;16.646;2022-12-18T17:33:42;6.70;49.00
35299;DHT22;21415;48.054;16.646;2022-12-18T17:36:09;6.70;48.90
35299;DHT22;21415;48.054;16.646;2022-12-18T17:38:36;6.70;49.00